createdAt,value
2022-09-10T00:00:27.613Z,63.21
2022-09-10T00:03:22.318Z,63.36
2022-09-10T00:05:54.625Z,63.39
2022-09-10T00:08:27.291Z,62.83
2022-09-10T00:10:58.235Z,63.69
2022-09-10T00:13:29.990Z,63.33
2022-09-10T00:16:00.379Z,63.79
2022-09-10T00:18:36.524Z,63.31
2022-09-10T00:21:10.729Z,63.58
2022-09-10T00:23:44.511Z,63.37
2022-09-10T00:26:20.235Z,64.51
2022-09-10T00:28:52.684Z,64.45
2022-09-10T00:31:25.928Z,64.05
2022-09-10T00:34:01.139Z,64.36
2022-09-10T00:36:33.385Z,65.03
2022-09-10T00:39:05.448Z,64.59
2022-09-10T00:41:36.829Z,64.44
2022-09-10T00:44:10.006Z,65.15
2022-09-10T00:46:45.732Z,65.63
2022-09-10T00:49:22.467Z,65.35
2022-09-10T00:51:55.354Z,66.36
2022-09-10T01:01:33.541Z,67.77
2022-09-10T01:04:06.251Z,67.63
2022-09-10T01:06:40.031Z,67.90
2022-09-10T01:09:12.131Z,68.47
2022-09-10T01:11:54.919Z,67.89
2022-09-10T01:14:40.123Z,67.06
2022-09-10T01:17:19.982Z,66.92
2022-09-10T01:20:16.330Z,66.93
2022-09-10T01:23:07.687Z,67.02
2022-09-10T01:25:45.888Z,66.80
2022-09-10T01:28:23.943Z,66.72
2022-09-10T01:30:59.582Z,66.24
2022-09-10T01:33:37.412Z,66.78
2022-09-10T01:36:12.774Z,66.75
2022-09-10T01:38:43.438Z,65.65
2022-09-10T01:41:13.467Z,66.07
2022-09-10T01:43:45.825Z,66.12
2022-09-10T01:46:29.948Z,65.99
2022-09-10T01:49:08.254Z,65.21
2022-09-10T01:51:49.682Z,65.02
2022-09-10T01:54:35.358Z,64.70
2022-09-10T01:57:16.262Z,64.47
2022-09-10T01:59:56.597Z,65.06
2022-09-10T02:02:32.895Z,64.88
2022-09-10T02:05:06.295Z,65.03
2022-09-10T02:07:39.570Z,64.90
2022-09-10T02:10:11.964Z,65.12
2022-09-10T02:12:42.577Z,65.17
2022-09-10T02:15:16.370Z,65.06
2022-09-10T02:17:47.701Z,65.59
2022-09-10T02:20:19.491Z,65.85
2022-09-10T02:22:54.960Z,66.24
2022-09-10T02:25:24.826Z,65.96
2022-09-10T02:27:56.233Z,65.87
2022-09-10T02:30:29.298Z,66.43
2022-09-10T02:32:59.359Z,65.84
2022-09-10T02:35:29.131Z,65.94
2022-09-10T02:37:59.420Z,66.49
2022-09-10T02:40:31.887Z,66.60
2022-09-10T02:43:01.737Z,66.69
2022-09-10T02:45:34.716Z,66.03
2022-09-10T02:48:05.032Z,66.85
2022-09-10T02:50:35.527Z,66.67
2022-09-10T02:53:05.639Z,65.92
2022-09-10T02:55:36.123Z,66.74
2022-09-10T02:58:06.046Z,66.47
2022-09-10T03:00:38.593Z,66.73
2022-09-10T03:03:08.868Z,67.55
2022-09-10T03:05:39.151Z,67.21
2022-09-10T03:08:09.377Z,66.62
2022-09-10T03:10:39.527Z,67.38
2022-09-10T03:13:09.648Z,67.52
2022-09-10T03:15:42.370Z,66.42
2022-09-10T03:18:13.026Z,66.88
2022-09-10T03:20:43.864Z,67.09
2022-09-10T03:23:13.777Z,66.95
2022-09-10T03:25:47.917Z,66.90
2022-09-10T03:28:20.195Z,66.93
2022-09-10T03:30:52.901Z,66.61
2022-09-10T03:33:22.920Z,67.42
2022-09-10T03:35:53.008Z,66.80
2022-09-10T03:38:23.822Z,67.28
2022-09-10T03:40:54.212Z,67.75
2022-09-10T03:43:24.695Z,68.11
2022-09-10T03:45:57.401Z,68.84
2022-09-10T03:48:30.474Z,68.54
2022-09-10T03:51:00.442Z,69.35
2022-09-10T03:53:30.649Z,69.99
2022-09-10T03:56:00.496Z,69.96
2022-09-10T03:58:31.933Z,70.44
2022-09-10T04:01:05.087Z,70.67
2022-09-10T04:03:34.980Z,71.07
2022-09-10T04:06:05.067Z,70.12
2022-09-10T04:08:35.017Z,70.01
2022-09-10T04:11:05.618Z,69.54
2022-09-10T04:13:35.888Z,70.41
2022-09-10T04:16:11.983Z,70.62
2022-09-10T04:18:42.154Z,70.80
2022-09-10T04:21:12.257Z,70.14
2022-09-10T04:23:42.873Z,70.18
2022-09-10T04:26:17.568Z,69.51
2022-09-10T04:28:47.992Z,69.25
2022-09-10T04:31:21.166Z,69.59
2022-09-10T04:33:51.079Z,68.31
2022-09-10T04:36:21.205Z,67.53
2022-09-10T04:38:51.030Z,67.52
2022-09-10T04:41:20.815Z,67.54
2022-09-10T04:43:50.920Z,67.32
2022-09-10T04:46:23.735Z,68.10
2022-09-10T04:48:54.238Z,67.77
2022-09-10T04:51:24.128Z,67.95
2022-09-10T04:53:54.041Z,68.57
2022-09-10T04:56:24.490Z,68.28
2022-09-10T04:58:54.578Z,67.97
2022-09-10T05:01:29.124Z,67.53
2022-09-10T05:03:59.470Z,69.86
2022-09-10T05:06:29.944Z,69.80
2022-09-10T05:09:00.472Z,68.49
2022-09-10T05:11:31.487Z,68.18
2022-09-10T05:14:01.682Z,68.49
2022-09-10T05:16:35.123Z,68.64
2022-09-10T05:19:04.973Z,69.20
2022-09-10T05:21:35.382Z,68.45
2022-09-10T05:24:05.516Z,68.51
2022-09-10T05:26:35.219Z,68.02
2022-09-10T05:29:05.434Z,68.70
2022-09-10T05:31:37.967Z,68.59
2022-09-10T05:34:08.778Z,68.38
2022-09-10T05:36:38.578Z,68.39
2022-09-10T05:39:08.506Z,68.51
2022-09-10T05:41:38.682Z,68.56
2022-09-10T05:44:09.058Z,68.07
2022-09-10T05:46:41.727Z,68.37
2022-09-10T05:49:13.122Z,68.43
2022-09-10T05:51:43.882Z,68.08
2022-09-10T05:54:14.010Z,68.76
2022-09-10T05:56:44.030Z,68.75
2022-09-10T05:59:13.858Z,69.50
2022-09-10T06:01:50.547Z,68.55
2022-09-10T06:04:21.714Z,68.10
2022-09-10T06:06:51.558Z,68.96
2022-09-10T06:09:21.929Z,68.82
2022-09-10T06:11:52.204Z,69.26
2022-09-10T06:14:22.610Z,69.58
2022-09-10T06:16:57.769Z,69.28
2022-09-10T06:19:28.195Z,69.95
2022-09-10T06:21:57.891Z,70.63
2022-09-10T06:24:27.647Z,70.97
2022-09-10T06:26:57.915Z,70.72
2022-09-10T06:29:27.734Z,70.41
2022-09-10T06:32:00.556Z,69.69
2022-09-10T06:34:30.320Z,70.13
2022-09-10T06:37:02.601Z,70.12
2022-09-10T06:39:32.644Z,70.38
2022-09-10T06:42:02.777Z,70.45
2022-09-10T06:44:32.958Z,69.72
2022-09-10T06:49:55.998Z,68.80
2022-09-10T06:52:26.175Z,70.40
2022-09-10T06:54:56.566Z,71.38
2022-09-10T06:57:29.391Z,72.05
2022-09-10T07:01:10.887Z,70.40
2022-09-10T07:03:39.994Z,70.99
2022-09-10T07:06:13.393Z,70.10
2022-09-10T07:08:44.155Z,69.26
2022-09-10T07:11:16.334Z,67.70
2022-09-10T07:13:46.216Z,66.10
2022-09-10T07:16:20.382Z,65.51
2022-09-10T07:18:55.135Z,64.92
2022-09-10T07:21:27.459Z,65.03
2022-09-10T07:23:58.324Z,64.77
2022-09-10T07:26:28.731Z,64.38
2022-09-10T07:29:00.071Z,64.90
2022-09-10T07:31:33.790Z,63.59
2022-09-10T07:34:07.118Z,63.87
2022-09-10T07:36:37.431Z,63.91
2022-09-10T07:39:07.312Z,63.53
2022-09-10T07:41:37.711Z,64.24
2022-09-10T07:44:08.162Z,64.29
2022-09-10T07:49:53.429Z,62.75
2022-09-10T07:52:23.224Z,63.32
2022-09-10T07:54:53.280Z,62.55
2022-09-10T07:57:23.139Z,62.71
2022-09-10T07:59:53.778Z,62.41
2022-09-10T08:02:25.855Z,62.45
2022-09-10T08:05:02.912Z,61.50
2022-09-10T08:07:57.207Z,61.87
2022-09-10T08:10:27.939Z,61.68
2022-09-10T08:12:57.955Z,61.24
2022-09-10T08:15:28.310Z,61.83
2022-09-10T08:17:58.982Z,61.32
2022-09-10T08:20:34.769Z,60.14
2022-09-10T08:23:07.542Z,60.44
2022-09-10T08:25:38.143Z,60.24
2022-09-10T08:28:08.530Z,58.90
2022-09-10T08:30:40.161Z,58.70
2022-09-10T08:33:09.994Z,57.51
2022-09-10T08:35:42.660Z,57.19
2022-09-10T08:38:12.901Z,57.31
2022-09-10T08:40:44.750Z,55.91
2022-09-10T08:43:15.709Z,56.42
2022-09-10T08:45:54.330Z,55.67
2022-09-10T08:48:26.538Z,54.80
2022-09-10T08:51:02.997Z,54.05
2022-09-10T08:53:42.008Z,52.63
2022-09-10T08:56:16.456Z,53.63
2022-09-10T08:58:49.691Z,52.67
2022-09-10T09:01:30.439Z,53.09
2022-09-10T09:04:06.299Z,53.67
2022-09-10T09:06:45.418Z,52.62
2022-09-10T09:09:16.583Z,52.62
2022-09-10T09:11:57.585Z,53.53
2022-09-10T09:14:41.369Z,52.38
2022-09-10T09:17:26.838Z,51.70
2022-09-10T09:20:08.555Z,51.51
2022-09-10T09:22:48.537Z,51.30
2022-09-10T09:25:25.361Z,51.77
2022-09-10T09:27:58.158Z,51.89
2022-09-10T09:30:37.239Z,52.08
2022-09-10T09:33:16.855Z,50.46
2022-09-10T09:35:52.582Z,49.84
2022-09-10T09:38:28.455Z,49.12
2022-09-10T09:41:00.601Z,48.29
2022-09-10T09:43:40.133Z,47.82
2022-09-10T09:46:15.767Z,47.19
2022-09-10T09:48:48.161Z,48.70
2022-09-10T09:51:22.121Z,48.66
2022-09-10T09:54:34.639Z,47.79
2022-09-10T09:56:55.095Z,47.19
2022-09-10T09:59:40.321Z,47.12
2022-09-10T10:02:16.005Z,48.03
2022-09-10T10:04:58.052Z,46.80
2022-09-10T10:07:31.638Z,46.64
2022-09-10T10:10:07.447Z,47.40
2022-09-10T10:12:44.324Z,47.30
2022-09-10T10:15:40.282Z,48.16
2022-09-10T10:18:31.935Z,47.09
2022-09-10T10:21:22.695Z,46.44
2022-09-10T10:23:56.736Z,47.01
2022-09-10T10:26:35.567Z,47.32
2022-09-10T10:29:12.691Z,47.00
2022-09-10T10:35:45.718Z,46.53
2022-09-10T10:38:32.891Z,46.04
2022-09-10T10:41:32.164Z,45.62
2022-09-10T10:44:25.559Z,44.59
2022-09-10T10:47:43.895Z,44.83
2022-09-10T10:50:52.935Z,45.73
2022-09-10T10:53:40.570Z,44.79
2022-09-10T10:56:17.785Z,42.13
2022-09-10T10:58:59.772Z,41.46
2022-09-10T11:06:20.497Z,42.80
2022-09-10T11:13:03.258Z,42.95
2022-09-10T11:15:51.542Z,43.35
2022-09-10T11:18:34.138Z,43.15
2022-09-10T11:21:15.260Z,43.07
2022-09-10T11:37:43.515Z,37.04
2022-09-10T11:58:26.009Z,35.79
2022-09-10T12:01:01.287Z,34.92
2022-09-10T12:16:22.248Z,36.18
2022-09-10T12:16:32.024Z,39.13
2022-09-10T12:34:37.339Z,38.95
2022-09-10T12:46:25.858Z,38.21
2022-09-10T13:04:47.725Z,36.17
2022-09-10T13:08:38.224Z,36.65
2022-09-10T13:11:50.298Z,35.92
2022-09-10T13:15:07.385Z,35.18
2022-09-10T13:19:10.713Z,35.74
2022-09-10T13:23:12.701Z,36.24
2022-09-10T13:35:46.958Z,41.67
2022-09-10T13:39:51.956Z,41.23
2022-09-10T13:43:07.733Z,42.69
2022-09-10T13:49:45.268Z,41.52
2022-09-10T13:52:38.983Z,42.79
2022-09-10T13:55:10.218Z,43.83
2022-09-10T13:57:43.718Z,42.62
2022-09-10T14:00:23.866Z,40.59
2022-09-10T14:02:56.183Z,38.46
2022-09-10T14:05:33.934Z,37.16
2022-09-10T14:08:10.453Z,35.58
2022-09-10T14:10:53.265Z,34.77
2022-09-10T14:13:28.730Z,32.86
2022-09-10T14:16:03.269Z,33.39
2022-09-10T14:18:43.459Z,30.33
2022-09-10T14:21:16.047Z,31.25
2022-09-10T14:23:51.031Z,33.27
2022-09-10T14:26:26.405Z,33.90
2022-09-10T14:28:59.797Z,34.09
2022-09-10T14:31:36.268Z,35.80
2022-09-10T14:34:33.264Z,36.84
2022-09-10T14:37:07.147Z,37.93
2022-09-10T14:39:47.549Z,38.60
2022-09-10T14:42:28.914Z,39.78
2022-09-10T14:44:59.650Z,39.13
2022-09-10T14:47:37.814Z,39.42
2022-09-10T14:50:31.076Z,39.35
2022-09-10T14:53:01.801Z,38.61
2022-09-10T14:55:43.026Z,39.08
2022-09-10T14:58:24.175Z,39.60
2022-09-10T15:00:58.734Z,39.18
2022-09-10T15:03:36.578Z,36.57
2022-09-10T15:06:08.434Z,36.20
2022-09-10T15:08:39.828Z,36.62
2022-09-10T15:11:49.140Z,36.07
2022-09-10T15:18:32.151Z,34.46
2022-09-10T15:21:03.129Z,34.17
2022-09-10T15:23:33.197Z,33.10
2022-09-10T15:26:06.563Z,33.18
2022-09-10T15:28:36.844Z,34.21
2022-09-10T15:31:11.024Z,34.97
2022-09-10T15:33:40.901Z,34.10
2022-09-10T15:36:11.438Z,33.53
2022-09-10T15:38:41.184Z,34.30
2022-09-10T15:41:13.292Z,33.93
2022-09-10T15:43:47.807Z,34.25
2022-09-10T15:46:24.375Z,34.51
2022-09-10T15:48:56.847Z,34.35
2022-09-10T15:51:27.072Z,34.17
2022-09-10T15:54:00.780Z,33.24
2022-09-10T15:59:59.410Z,31.69
2022-09-10T16:03:23.483Z,33.04
2022-09-10T16:06:07.610Z,33.26
2022-09-10T16:08:40.219Z,33.79
2022-09-10T16:11:14.521Z,34.20
2022-09-10T16:13:52.715Z,34.07
2022-09-10T16:17:13.717Z,32.32
2022-09-10T16:19:54.690Z,30.80
2022-09-10T16:22:41.325Z,30.94
2022-09-10T16:25:28.225Z,31.02
2022-09-10T16:27:59.158Z,31.34
2022-09-10T16:30:31.713Z,31.88
2022-09-10T16:33:02.600Z,32.58
2022-09-10T16:35:39.197Z,32.78
2022-09-10T16:38:40.527Z,32.41
2022-09-10T16:41:15.181Z,32.67
2022-09-10T16:43:48.164Z,32.44
2022-09-10T16:46:20.852Z,33.09
2022-09-10T16:48:58.679Z,33.08
2022-09-10T16:51:38.040Z,35.17
2022-09-10T16:54:12.054Z,37.21
2022-09-10T16:56:52.489Z,38.91
2022-09-10T16:59:26.727Z,40.11
2022-09-10T17:02:07.640Z,40.36
2022-09-10T17:04:48.778Z,41.50
2022-09-10T17:07:42.565Z,41.57
2022-09-10T17:10:28.940Z,40.83
2022-09-10T17:13:18.016Z,40.78
2022-09-10T17:16:13.652Z,40.46
2022-09-10T17:19:15.941Z,40.89
2022-09-10T17:22:48.168Z,42.75
2022-09-10T17:25:36.335Z,43.42
2022-09-10T17:28:09.681Z,43.41
2022-09-10T17:30:59.712Z,42.26
2022-09-10T17:33:49.089Z,42.58
2022-09-10T17:36:40.367Z,43.14
2022-09-10T17:39:42.565Z,42.68
2022-09-10T17:42:30.720Z,43.21
2022-09-10T17:45:27.362Z,43.34
2022-09-10T17:48:03.536Z,42.98
2022-09-10T17:50:34.639Z,42.84
2022-09-10T17:53:58.709Z,42.83
2022-09-10T17:56:48.455Z,42.48
2022-09-10T17:59:58.321Z,42.93
2022-09-10T18:03:03.232Z,43.25
2022-09-10T18:05:41.941Z,43.18
2022-09-10T18:08:31.552Z,43.49
2022-09-10T18:11:11.681Z,43.06
2022-09-10T18:18:01.704Z,42.91
2022-09-10T18:20:53.306Z,43.02
2022-09-10T18:24:20.887Z,43.98
2022-09-10T18:27:34.818Z,44.39
2022-09-10T18:30:13.455Z,44.41
2022-09-10T18:32:56.692Z,44.66
2022-09-10T18:35:40.849Z,44.55
2022-09-10T18:38:29.586Z,45.01
2022-09-10T18:41:06.643Z,45.57
2022-09-10T18:43:37.542Z,46.42
2022-09-10T18:46:08.435Z,46.13
2022-09-10T18:48:41.214Z,46.45
2022-09-10T18:51:14.645Z,46.30
2022-09-10T18:53:46.204Z,46.50
2022-09-10T18:56:18.174Z,46.48
2022-09-10T18:58:52.468Z,46.36
2022-09-10T19:02:09.838Z,46.04
2022-09-10T19:05:11.626Z,45.41
2022-09-10T19:07:45.131Z,45.25
2022-09-10T19:10:15.003Z,45.98
2022-09-10T19:12:46.287Z,46.86
2022-09-10T19:15:16.512Z,46.57
2022-09-10T19:17:46.803Z,46.32
2022-09-10T19:20:20.048Z,46.11
2022-09-10T19:22:50.315Z,46.24
2022-09-10T19:29:10.061Z,45.94
2022-09-10T19:31:40.126Z,46.03
2022-09-10T19:34:11.389Z,46.38
2022-09-10T19:37:03.640Z,46.36
2022-09-10T19:39:47.824Z,47.66
2022-09-10T19:42:25.895Z,47.73
2022-09-10T19:44:56.677Z,47.48
2022-09-10T19:47:28.835Z,47.51
2022-09-10T19:50:06.033Z,48.03
2022-09-10T19:52:49.792Z,48.18
2022-09-10T19:55:25.506Z,49.02
2022-09-10T19:58:02.572Z,48.96
2022-09-10T20:00:46.855Z,49.14
2022-09-10T20:03:17.678Z,49.48
2022-09-10T20:05:49.607Z,49.43
2022-09-10T20:08:22.477Z,49.08
2022-09-10T20:10:54.364Z,49.14
2022-09-10T20:13:29.352Z,49.33
2022-09-10T20:16:02.689Z,49.22
2022-09-10T20:18:34.319Z,50.14
2022-09-10T20:21:12.629Z,50.31
2022-09-10T20:23:59.584Z,50.94
2022-09-10T20:26:57.952Z,50.27
2022-09-10T20:29:55.675Z,50.34
2022-09-10T20:32:55.560Z,50.19
2022-09-10T20:36:09.249Z,49.97
2022-09-10T20:43:22.039Z,50.07
2022-09-10T20:50:47.952Z,50.77
2022-09-10T20:54:05.521Z,51.20
2022-09-10T20:57:13.023Z,51.76
2022-09-10T21:00:45.620Z,52.53
2022-09-10T21:19:57.058Z,52.58
2022-09-10T21:39:14.760Z,52.26
2022-09-10T21:42:11.032Z,52.57
2022-09-10T21:48:54.433Z,52.75
2022-09-10T21:51:27.819Z,52.87
2022-09-10T21:59:28.353Z,53.30
2022-09-10T22:16:25.758Z,54.80
2022-09-10T22:54:57.257Z,54.38
2022-09-10T22:56:52.003Z,54.26
